Time;durP1;ratioP1;P1;durP2;ratioP2;P2;SDS_P1;SDS_P2;PMS_P1;PMS_P2;Temp;Humidity;BMP_temperature;BMP_pressure;BME280_temperature;BME280_humidity;BME280_pressure;Samples;Min_cycle;Max_cycle;Signal;HPM_P1;HPM_P2
2022/02/27 00:01:46;;;;;;;12.63;4.40;;;3.50;92.00;;;;;;5034926;28;20030;-65
2022/02/27 00:04:12;;;;;;;10.32;3.75;;;3.50;92.00;;;;;;5033622;28;20068;-65
2022/02/27 00:06:37;;;;;;;12.90;3.58;;;3.50;92.10;;;;;;5033111;28;20120;-65
2022/02/27 00:09:03;;;;;;;11.02;3.03;;;3.50;92.10;;;;;;5034845;28;20385;-66
2022/02/27 00:11:29;;;;;;;9.05;3.38;;;3.50;92.10;;;;;;5034602;28;20025;-65
2022/02/27 00:13:54;;;;;;;8.20;3.22;;;3.50;92.10;;;;;;5034395;28;20128;-65
2022/02/27 00:16:20;;;;;;;12.65;4.22;;;3.50;92.00;;;;;;5033603;28;20034;-65
2022/02/27 00:18:45;;;;;;;17.00;4.20;;;3.50;92.00;;;;;;5033254;28;20021;-65
2022/02/27 00:21:11;;;;;;;9.85;3.63;;;3.40;92.00;;;;;;5034552;28;20026;-65
2022/02/27 00:23:36;;;;;;;8.60;3.08;;;3.40;92.00;;;;;;5034498;28;20041;-65
2022/02/27 00:26:02;;;;;;;8.38;3.15;;;3.40;92.00;;;;;;5033123;28;20075;-65
2022/02/27 00:28:28;;;;;;;8.70;3.05;;;3.40;92.00;;;;;;5033148;28;20033;-66
2022/02/27 00:30:53;;;;;;;7.18;3.03;;;3.40;92.00;;;;;;5033101;28;20021;-65
2022/02/27 00:33:19;;;;;;;9.82;2.92;;;3.40;92.10;;;;;;5032993;28;20520;-65
2022/02/27 00:35:44;;;;;;;8.57;2.97;;;3.40;92.10;;;;;;5032882;28;20037;-65
2022/02/27 00:38:10;;;;;;;9.55;2.35;;;3.40;92.10;;;;;;5034279;28;20026;-66
2022/02/27 00:40:38;;;;;;;8.68;2.67;;;3.30;92.00;;;;;;5034109;28;20105;-65
2022/02/27 00:43:04;;;;;;;7.30;2.35;;;3.30;92.00;;;;;;5033270;28;20025;-66
2022/02/27 00:45:29;;;;;;;8.18;3.10;;;3.30;92.00;;;;;;5032708;28;20056;-66
2022/02/27 00:47:55;;;;;;;8.35;2.83;;;3.30;92.00;;;;;;5034073;28;20025;-66
2022/02/27 00:50:20;;;;;;;8.48;3.42;;;3.30;92.00;;;;;;5034101;28;20037;-65
2022/02/27 00:52:46;;;;;;;7.85;3.15;;;3.30;92.00;;;;;;5032690;28;20018;-65
2022/02/27 00:55:12;;;;;;;8.55;2.33;;;3.30;92.00;;;;;;5033751;28;20100;-65
2022/02/27 00:57:37;;;;;;;6.82;2.47;;;3.30;92.00;;;;;;5033818;28;20478;-65
2022/02/27 01:00:07;;;;;;;8.13;3.05;;;3.20;92.00;;;;;;5032582;28;20021;-65
2022/02/27 01:02:33;;;;;;;10.48;2.78;;;3.20;92.00;;;;;;5033698;28;20108;-65
2022/02/27 01:04:58;;;;;;;5.32;2.28;;;3.20;92.10;;;;;;5015876;28;20117;-65
2022/02/27 01:07:24;;;;;;;8.63;2.20;;;3.20;92.10;;;;;;5014005;28;20513;-66
2022/02/27 01:09:49;;;;;;;9.20;2.97;;;3.10;92.10;;;;;;5013825;28;20042;-65
2022/02/27 01:12:15;;;;;;;10.65;2.97;;;3.10;92.10;;;;;;5013844;28;20022;-65
2022/02/27 01:14:40;;;;;;;5.90;2.50;;;3.10;92.10;;;;;;5012242;28;20049;-65
2022/02/27 01:17:06;;;;;;;5.25;2.05;;;3.10;92.40;;;;;;5013690;28;20032;-66
2022/02/27 01:19:35;;;;;;;5.68;2.17;;;3.00;92.20;;;;;;5027205;28;20026;-65
2022/02/27 01:22:01;;;;;;;5.68;2.38;;;3.00;92.20;;;;;;5033393;28;20029;-65
2022/02/27 01:24:27;;;;;;;4.78;1.90;;;3.00;92.20;;;;;;5033289;28;20034;-66
2022/02/27 01:26:52;;;;;;;8.15;2.17;;;3.00;92.30;;;;;;5033292;28;20040;-65
2022/02/27 01:29:18;;;;;;;7.47;2.63;;;3.00;92.30;;;;;;5033328;28;20034;-66
2022/02/27 01:31:43;;;;;;;4.80;2.15;;;3.00;92.30;;;;;;5033271;28;20025;-66
2022/02/27 01:34:09;;;;;;;7.72;2.67;;;2.90;92.20;;;;;;5033080;28;20029;-65
2022/02/27 01:36:34;;;;;;;6.05;2.10;;;2.90;92.30;;;;;;5033101;28;20033;-66
2022/02/27 01:39:00;;;;;;;6.78;2.40;;;2.90;92.30;;;;;;5033034;28;20037;-65
2022/02/27 01:41:26;;;;;;;6.85;2.45;;;2.80;92.20;;;;;;5032125;28;20087;-65
2022/02/27 01:43:52;;;;;;;5.57;2.50;;;2.80;92.30;;;;;;5033052;28;20025;-66
2022/02/27 01:46:18;;;;;;;5.13;2.35;;;2.70;92.30;;;;;;5048289;28;20029;-66
2022/02/27 01:48:43;;;;;;;5.00;2.60;;;2.70;92.40;;;;;;5032925;28;20068;-66
2022/02/27 01:51:09;;;;;;;7.95;2.17;;;2.70;92.50;;;;;;5032936;28;20075;-65
2022/02/27 01:53:35;;;;;;;8.30;2.70;;;2.60;92.50;;;;;;5032698;28;20511;-65
2022/02/27 01:56:01;;;;;;;6.22;2.47;;;2.60;92.50;;;;;;5048193;28;20030;-65
2022/02/27 01:58:28;;;;;;;6.13;2.67;;;2.60;92.50;;;;;;5032791;28;20386;-66
2022/02/27 02:00:56;;;;;;;10.45;3.78;;;2.60;92.50;;;;;;5031602;28;20032;-66
2022/02/27 02:03:22;;;;;;;7.22;3.40;;;2.50;92.50;;;;;;5032827;28;20104;-66
2022/02/27 02:05:47;;;;;;;11.50;3.55;;;2.50;92.60;;;;;;5032629;28;20116;-65
2022/02/27 02:08:14;;;;;;;7.65;3.60;;;2.50;92.60;;;;;;5032671;28;20370;-66
2022/02/27 02:10:41;;;;;;;8.20;3.60;;;2.40;92.70;;;;;;5032702;28;20036;-66
2022/02/27 02:13:07;;;;;;;9.27;3.35;;;2.40;92.70;;;;;;5032434;28;20053;-66
2022/02/27 02:15:33;;;;;;;9.80;3.70;;;2.40;92.70;;;;;;5032690;28;20428;-66
2022/02/27 02:17:58;;;;;;;9.88;3.22;;;2.40;92.80;;;;;;5032477;28;20371;-66
2022/02/27 02:20:24;;;;;;;8.75;4.00;;;2.40;92.80;;;;;;5031252;28;20022;-66
2022/02/27 02:22:49;;;;;;;12.30;4.78;;;2.40;92.80;;;;;;5032524;28;20037;-66
2022/02/27 02:25:15;;;;;;;16.13;5.85;;;2.40;92.90;;;;;;5032392;28;20021;-66
2022/02/27 02:27:44;;;;;;;11.10;5.18;;;2.30;93.00;;;;;;5032323;28;20029;-66
2022/02/27 02:30:10;;;;;;;15.48;5.25;;;2.30;93.20;;;;;;5034329;28;20020;-66
2022/02/27 02:32:57;;;;;;;10.85;4.35;;;2.20;93.20;;;;;;5036573;28;20021;-66
2022/02/27 02:35:26;;;;;;;8.75;4.13;;;2.30;93.30;;;;;;5051998;28;20358;-66
2022/02/27 02:37:52;;;;;;;12.00;3.92;;;2.20;93.30;;;;;;5036456;28;20029;-66
2022/02/27 02:40:17;;;;;;;7.53;4.07;;;2.30;93.40;;;;;;5036743;28;20083;-66
2022/02/27 02:42:45;;;;;;;7.60;4.30;;;2.30;93.40;;;;;;5035152;28;20024;-66
2022/02/27 02:45:12;;;;;;;9.38;4.13;;;2.30;93.40;;;;;;5036240;28;20087;-66
2022/02/27 02:47:46;;;;;;;9.45;3.60;;;2.20;93.30;;;;;;5034912;28;20091;-66
2022/02/27 02:50:13;;;;;;;6.50;3.95;;;2.20;93.40;;;;;;5036285;28;20037;-66
2022/02/27 02:52:39;;;;;;;8.07;3.67;;;2.20;93.50;;;;;;5036294;28;20059;-65
2022/02/27 02:55:07;;;;;;;9.27;3.10;;;2.20;93.50;;;;;;5036100;28;20065;-66
2022/02/27 02:57:33;;;;;;;13.65;4.00;;;2.20;93.50;;;;;;5036148;28;20017;-66
2022/02/27 02:59:58;;;;;;;11.80;4.38;;;2.10;93.50;;;;;;5036095;28;20373;-66
2022/02/27 03:02:24;;;;;;;10.50;3.85;;;2.10;93.50;;;;;;5036105;28;20056;-65
2022/02/27 03:04:50;;;;;;;12.20;3.97;;;2.10;93.60;;;;;;5034785;28;20059;-66
2022/02/27 03:07:15;;;;;;;7.15;3.85;;;2.00;93.60;;;;;;5035887;28;20119;-66
2022/02/27 03:09:41;;;;;;;7.90;3.88;;;2.00;93.70;;;;;;5034704;28;20030;-66
2022/02/27 03:12:06;;;;;;;7.55;3.38;;;2.00;93.70;;;;;;5035887;28;20057;-65
2022/02/27 03:14:32;;;;;;;7.28;3.38;;;2.00;93.70;;;;;;5035556;28;20049;-66
2022/02/27 03:16:58;;;;;;;11.73;3.60;;;2.00;93.80;;;;;;5034681;28;20041;-65
2022/02/27 03:19:23;;;;;;;10.13;4.35;;;2.00;93.80;;;;;;5035668;28;20029;-65
2022/02/27 03:21:49;;;;;;;12.90;4.70;;;2.00;93.80;;;;;;5035764;28;20095;-66
2022/02/27 03:24:14;;;;;;;9.50;4.68;;;2.00;93.90;;;;;;5035679;28;20401;-65
2022/02/27 03:26:41;;;;;;;13.25;4.63;;;1.90;93.90;;;;;;5035603;28;20034;-65
2022/02/27 03:29:07;;;;;;;8.57;4.10;;;1.90;94.00;;;;;;5034177;28;20029;-65
2022/02/27 03:31:34;;;;;;;8.95;4.18;;;1.90;94.00;;;;;;5030276;28;20033;-66
2022/02/27 03:33:59;;;;;;;11.32;4.03;;;1.90;94.10;;;;;;5015692;28;20498;-65
2022/02/27 03:36:25;;;;;;;10.07;4.10;;;1.90;94.10;;;;;;5034020;28;20048;-65
2022/02/27 03:38:51;;;;;;;11.50;4.05;;;1.90;94.10;;;;;;5035755;28;20101;-66
2022/02/27 03:41:16;;;;;;;11.52;5.25;;;1.90;94.20;;;;;;5034486;28;20474;-66
2022/02/27 03:43:42;;;;;;;12.07;4.57;;;1.90;94.30;;;;;;5033972;28;20108;-65
2022/02/27 03:46:07;;;;;;;7.28;3.60;;;1.80;94.30;;;;;;5035108;28;20025;-66
2022/02/27 03:48:33;;;;;;;10.40;3.63;;;1.90;94.30;;;;;;5035187;28;20025;-66
2022/02/27 03:50:58;;;;;;;8.55;4.13;;;1.90;94.40;;;;;;5035064;28;20119;-66
2022/02/27 03:53:24;;;;;;;10.93;3.95;;;1.80;94.40;;;;;;5035049;28;20241;-66
2022/02/27 03:55:50;;;;;;;9.27;3.78;;;1.90;94.40;;;;;;5035116;28;20026;-66
2022/02/27 03:58:15;;;;;;;14.38;4.93;;;1.80;94.40;;;;;;5034871;28;20025;-66
2022/02/27 04:00:41;;;;;;;10.18;3.85;;;1.80;94.60;;;;;;5034983;28;20112;-66
2022/02/27 04:03:08;;;;;;;9.50;3.83;;;1.80;94.60;;;;;;5034895;28;20030;-65
2022/02/27 04:05:34;;;;;;;11.00;4.40;;;1.80;94.70;;;;;;5034860;28;20101;-66
2022/02/27 04:08:00;;;;;;;10.70;4.50;;;1.80;94.70;;;;;;5033523;28;20116;-66
2022/02/27 04:10:26;;;;;;;12.73;4.28;;;1.80;94.80;;;;;;5034789;28;20033;-66
2022/02/27 04:12:51;;;;;;;7.50;4.28;;;1.70;94.80;;;;;;5034574;28;20466;-66
2022/02/27 04:15:17;;;;;;;11.70;4.32;;;1.70;94.90;;;;;;5033278;28;20040;-65
2022/02/27 04:17:43;;;;;;;10.15;4.18;;;1.70;95.00;;;;;;5034680;28;20029;-65
2022/02/27 04:20:09;;;;;;;11.70;4.45;;;1.70;95.10;;;;;;5034556;28;20021;-65
2022/02/27 04:22:34;;;;;;;9.32;3.97;;;1.60;95.10;;;;;;5034738;28;20017;-66
2022/02/27 04:25:00;;;;;;;9.00;4.55;;;1.60;95.20;;;;;;5034998;28;20133;-66
2022/02/27 04:27:26;;;;;;;9.98;4.18;;;1.60;95.20;;;;;;5034518;28;20507;-66
2022/02/27 04:29:51;;;;;;;10.27;3.72;;;1.60;95.30;;;;;;5034355;28;20025;-66
2022/02/27 04:32:17;;;;;;;10.00;4.57;;;1.50;95.40;;;;;;5033184;28;20032;-66
2022/02/27 04:34:43;;;;;;;7.85;3.38;;;1.60;95.40;;;;;;5034453;28;20064;-66
2022/02/27 04:37:08;;;;;;;12.18;4.43;;;1.50;95.40;;;;;;5032957;28;20022;-65
2022/02/27 04:39:34;;;;;;;8.95;4.00;;;1.50;95.50;;;;;;5034321;28;20025;-66
2022/02/27 04:41:59;;;;;;;9.65;3.35;;;1.50;95.60;;;;;;5034218;28;20033;-66
2022/02/27 04:44:25;;;;;;;10.25;4.07;;;1.50;95.60;;;;;;5032875;28;20124;-66
2022/02/27 04:46:50;;;;;;;8.82;3.60;;;1.50;95.60;;;;;;5034194;28;20029;-66
2022/02/27 04:49:16;;;;;;;10.20;4.03;;;1.40;95.60;;;;;;5032706;28;20489;-66
2022/02/27 04:51:42;;;;;;;9.55;4.35;;;1.40;95.70;;;;;;5049604;28;20078;-66
2022/02/27 04:54:08;;;;;;;9.00;3.75;;;1.40;95.70;;;;;;5032833;28;20108;-66
2022/02/27 04:56:33;;;;;;;8.23;3.67;;;1.40;95.70;;;;;;5034072;28;20022;-66
2022/02/27 04:58:59;;;;;;;9.50;3.55;;;1.40;95.70;;;;;;5033785;28;20128;-66
2022/02/27 05:01:24;;;;;;;8.82;3.30;;;1.40;95.80;;;;;;5032563;28;20036;-65
2022/02/27 05:03:50;;;;;;;7.88;3.20;;;1.40;95.80;;;;;;5032654;28;20477;-66
2022/02/27 05:06:15;;;;;;;5.65;2.85;;;1.30;95.80;;;;;;5033678;28;20088;-65
2022/02/27 05:08:41;;;;;;;7.28;3.08;;;1.30;95.90;;;;;;5033691;28;20057;-66
2022/02/27 05:11:06;;;;;;;11.25;3.35;;;1.30;95.90;;;;;;5032404;28;20029;-65
2022/02/27 05:13:33;;;;;;;7.28;3.03;;;1.30;96.00;;;;;;5033356;28;20045;-65
2022/02/27 05:15:58;;;;;;;10.35;3.22;;;1.30;96.00;;;;;;5032409;28;20148;-66
2022/02/27 05:18:24;;;;;;;7.28;3.40;;;1.20;96.00;;;;;;5033470;28;20068;-66
2022/02/27 05:20:49;;;;;;;6.38;2.95;;;1.20;96.00;;;;;;5033524;28;20027;-66
2022/02/27 05:23:15;;;;;;;6.40;2.90;;;1.20;96.10;;;;;;5033279;28;20116;-66
2022/02/27 05:25:40;;;;;;;5.18;2.50;;;1.20;96.10;;;;;;5033487;28;20021;-66
2022/02/27 05:28:06;;;;;;;8.43;2.90;;;1.10;96.10;;;;;;5033144;28;20033;-66
2022/02/27 05:30:32;;;;;;;8.13;3.13;;;1.10;96.10;;;;;;5031937;28;20084;-66
2022/02/27 05:32:57;;;;;;;8.63;3.42;;;1.10;96.10;;;;;;5033318;28;20104;-65
2022/02/27 05:35:22;;;;;;;7.57;2.80;;;1.10;96.20;;;;;;5033173;28;20116;-65
2022/02/27 05:37:48;;;;;;;7.57;4.00;;;1.10;96.20;;;;;;5033266;28;20029;-66
2022/02/27 05:40:15;;;;;;;13.00;3.78;;;1.10;96.20;;;;;;5031629;28;20395;-66
2022/02/27 05:42:41;;;;;;;14.20;4.75;;;1.10;96.20;;;;;;5033054;28;20501;-66
2022/02/27 05:45:07;;;;;;;12.68;4.50;;;1.00;96.30;;;;;;5033050;28;20030;-66
2022/02/27 05:47:32;;;;;;;9.05;4.20;;;1.00;96.30;;;;;;5033245;28;20021;-66
2022/02/27 05:49:58;;;;;;;9.05;4.47;;;1.00;96.40;;;;;;5031680;28;20040;-66
2022/02/27 05:52:24;;;;;;;8.23;3.67;;;1.00;96.40;;;;;;5032926;28;20025;-66
2022/02/27 05:54:49;;;;;;;9.38;4.32;;;1.00;96.50;;;;;;5032940;28;20105;-66
2022/02/27 05:57:15;;;;;;;10.93;3.55;;;1.00;96.60;;;;;;5032659;28;20033;-66
2022/02/27 05:59:41;;;;;;;6.70;3.53;;;1.00;96.60;;;;;;5031606;28;20385;-66
2022/02/27 06:02:07;;;;;;;10.93;4.00;;;1.00;96.60;;;;;;5032731;28;20473;-67
2022/02/27 06:04:32;;;;;;;10.70;3.80;;;1.00;96.70;;;;;;5032552;28;20029;-67
2022/02/27 06:06:59;;;;;;;12.50;4.28;;;1.10;96.70;;;;;;5032766;28;20496;-67
2022/02/27 06:09:25;;;;;;;7.90;2.60;;;1.10;96.80;;;;;;5031338;28;20121;-67
2022/02/27 06:11:51;;;;;;;9.95;3.40;;;1.10;96.80;;;;;;5032750;28;20108;-67
2022/02/27 06:14:17;;;;;;;7.45;3.30;;;1.10;96.80;;;;;;5031133;28;20091;-67
2022/02/27 06:16:43;;;;;;;8.88;3.72;;;1.10;96.80;;;;;;5032646;28;20517;-66
2022/02/27 06:19:09;;;;;;;9.68;3.30;;;1.10;96.90;;;;;;5031190;28;20036;-67
2022/02/27 06:21:34;;;;;;;8.05;2.83;;;1.10;96.90;;;;;;5032653;28;20068;-67
2022/02/27 06:24:00;;;;;;;11.05;2.63;;;1.10;96.90;;;;;;5032719;28;20057;-67
2022/02/27 06:26:25;;;;;;;8.63;3.05;;;1.20;97.00;;;;;;5032418;28;20543;-67
2022/02/27 06:28:51;;;;;;;10.90;3.10;;;1.20;97.00;;;;;;5032556;28;20022;-67
2022/02/27 06:31:16;;;;;;;8.30;3.15;;;1.10;96.90;;;;;;5032406;28;20025;-67
2022/02/27 06:33:44;;;;;;;6.65;3.00;;;1.20;97.00;;;;;;5031214;28;20018;-67
2022/02/27 06:36:09;;;;;;;8.25;3.08;;;1.20;96.90;;;;;;5030576;28;20056;-67
2022/02/27 06:38:35;;;;;;;9.15;3.08;;;1.20;97.00;;;;;;5028276;28;20060;-67
2022/02/27 06:41:01;;;;;;;6.10;2.33;;;1.20;96.90;;;;;;5028073;28;20024;-67
2022/02/27 06:43:28;;;;;;;7.63;3.50;;;1.30;97.00;;;;;;5024178;28;20034;-67
2022/02/27 06:45:53;;;;;;;6.68;2.80;;;1.20;97.00;;;;;;5028775;28;20377;-67
2022/02/27 06:48:19;;;;;;;8.07;3.13;;;1.30;97.00;;;;;;5028138;28;20504;-67
2022/02/27 06:50:45;;;;;;;7.93;3.28;;;1.30;97.00;;;;;;5028201;28;20030;-67
2022/02/27 06:53:10;;;;;;;9.23;2.85;;;1.30;97.00;;;;;;5027588;28;20543;-67
2022/02/27 06:55:36;;;;;;;7.05;4.05;;;1.30;96.90;;;;;;5028250;28;20469;-67
2022/02/27 06:58:02;;;;;;;5.60;2.42;;;1.30;96.90;;;;;;5026629;28;20021;-67
2022/02/27 07:00:27;;;;;;;11.57;3.10;;;1.30;96.90;;;;;;5028065;28;20018;-67
2022/02/27 07:02:54;;;;;;;8.85;2.90;;;1.40;96.90;;;;;;5028149;28;20044;-67
2022/02/27 07:05:20;;;;;;;8.85;2.83;;;1.40;96.90;;;;;;5026465;28;20028;-67
2022/02/27 07:07:45;;;;;;;5.88;2.63;;;1.40;96.80;;;;;;5028018;28;20037;-67
2022/02/27 07:10:11;;;;;;;6.95;2.40;;;1.40;96.80;;;;;;5027946;28;20034;-67
2022/02/27 07:12:37;;;;;;;5.85;2.78;;;1.50;96.80;;;;;;5027988;28;20084;-67
2022/02/27 07:15:04;;;;;;;6.40;3.00;;;1.50;96.70;;;;;;5027661;28;20513;-67
2022/02/27 07:17:30;;;;;;;6.70;2.67;;;1.50;96.70;;;;;;5030385;28;20057;-68
2022/02/27 07:19:55;;;;;;;8.25;2.92;;;1.50;96.70;;;;;;5031774;28;20045;-67
2022/02/27 07:22:22;;;;;;;7.57;2.88;;;1.50;96.70;;;;;;5031454;28;20026;-67
2022/02/27 07:24:48;;;;;;;6.60;3.03;;;1.60;96.70;;;;;;5031573;28;20064;-67
2022/02/27 07:27:14;;;;;;;7.90;2.80;;;1.60;96.70;;;;;;5030091;28;20026;-68
2022/02/27 07:29:40;;;;;;;10.40;3.38;;;1.60;96.60;;;;;;5029791;28;20033;-67
2022/02/27 07:32:07;;;;;;;8.68;2.70;;;1.70;96.60;;;;;;5031341;28;20026;-67
2022/02/27 07:34:33;;;;;;;8.57;2.88;;;1.70;96.60;;;;;;5031437;28;20104;-67
2022/02/27 07:36:59;;;;;;;8.90;2.60;;;1.80;96.50;;;;;;5031338;28;20143;-67
2022/02/27 07:39:26;;;;;;;10.18;2.47;;;1.80;96.40;;;;;;5029174;28;20025;-67
2022/02/27 07:41:52;;;;;;;8.23;2.10;;;1.90;96.40;;;;;;5031139;28;20379;-67
2022/02/27 07:44:18;;;;;;;6.97;2.20;;;2.00;96.30;;;;;;5030987;28;20029;-67
2022/02/27 07:46:44;;;;;;;6.72;2.50;;;2.00;96.20;;;;;;5031025;28;20025;-67
2022/02/27 07:49:10;;;;;;;4.50;2.20;;;2.10;96.10;;;;;;5030119;28;20347;-67
2022/02/27 07:51:36;;;;;;;6.28;2.30;;;2.20;96.00;;;;;;5029709;28;20059;-67
2022/02/27 07:54:02;;;;;;;7.10;2.35;;;2.30;95.90;;;;;;5029164;28;20033;-67
2022/02/27 07:56:28;;;;;;;7.07;2.25;;;2.30;95.70;;;;;;5030682;28;20036;-67
2022/02/27 07:58:54;;;;;;;5.65;2.13;;;2.40;95.60;;;;;;5030733;28;20021;-67
2022/02/27 08:01:20;;;;;;;8.48;3.20;;;2.50;95.50;;;;;;5030795;28;20509;-67
2022/02/27 08:03:46;;;;;;;6.13;1.95;;;2.60;95.40;;;;;;5028169;28;20021;-67
2022/02/27 08:06:11;;;;;;;10.27;2.90;;;2.60;95.20;;;;;;5028452;28;20028;-67
2022/02/27 08:08:37;;;;;;;5.80;2.35;;;2.60;95.00;;;;;;5045225;28;20063;-67
2022/02/27 08:11:05;;;;;;;11.75;3.17;;;2.70;94.90;;;;;;5029506;28;20060;-67
2022/02/27 08:13:30;;;;;;;10.45;3.00;;;2.90;94.60;;;;;;5032967;28;20125;-67
2022/02/27 08:15:57;;;;;;;7.68;2.38;;;2.90;94.40;;;;;;5031430;28;20496;-67
2022/02/27 08:18:24;;;;;;;12.88;3.78;;;3.00;94.20;;;;;;5034349;28;20021;-67
2022/02/27 08:20:49;;;;;;;6.95;2.00;;;3.10;93.70;;;;;;5049773;28;20106;-67
2022/02/27 08:23:18;;;;;;;8.27;2.95;;;3.20;93.50;;;;;;5033931;28;20076;-67
2022/02/27 08:25:44;;;;;;;8.25;3.35;;;3.30;92.70;;;;;;5034476;28;20485;-67
2022/02/27 08:28:10;;;;;;;7.57;2.63;;;3.40;92.60;;;;;;5049434;28;20460;-67
2022/02/27 08:30:35;;;;;;;15.57;3.33;;;3.50;92.80;;;;;;5049696;28;20116;-73
2022/02/27 08:33:01;;;;;;;8.75;2.95;;;3.60;91.80;;;;;;5034361;28;20036;-67
2022/02/27 08:35:26;;;;;;;10.52;2.95;;;3.70;91.70;;;;;;5034226;28;20048;-68
2022/02/27 08:37:52;;;;;;;8.63;3.40;;;3.80;91.10;;;;;;5034270;28;20029;-68
2022/02/27 08:40:17;;;;;;;12.40;2.72;;;3.90;91.00;;;;;;5034121;28;20024;-67
2022/02/27 08:42:43;;;;;;;6.63;2.70;;;3.90;90.90;;;;;;5034216;28;20470;-68
2022/02/27 08:45:09;;;;;;;9.13;3.25;;;4.00;90.80;;;;;;5034022;28;20470;-67
2022/02/27 08:47:35;;;;;;;9.20;2.90;;;4.10;90.20;;;;;;5033017;28;20029;-67
2022/02/27 08:50:00;;;;;;;10.25;3.25;;;4.20;88.70;;;;;;5033960;28;20029;-66
2022/02/27 08:52:26;;;;;;;9.57;3.15;;;4.30;88.00;;;;;;5034035;28;20432;-68
2022/02/27 08:54:51;;;;;;;13.18;2.80;;;4.40;86.80;;;;;;5033901;28;20029;-67
2022/02/27 08:57:17;;;;;;;4.97;2.75;;;4.50;84.10;;;;;;5033925;28;20021;-66
2022/02/27 08:59:42;;;;;;;8.18;2.67;;;4.70;84.00;;;;;;5033868;28;20029;-67
2022/02/27 09:02:08;;;;;;;10.27;2.85;;;4.80;82.30;;;;;;5033786;28;20030;-67
2022/02/27 09:04:34;;;;;;;12.60;3.05;;;4.90;81.70;;;;;;5033811;28;20390;-67
2022/02/27 09:06:59;;;;;;;8.75;3.00;;;5.00;79.20;;;;;;5032431;28;20453;-67
2022/02/27 09:09:25;;;;;;;6.55;2.58;;;5.00;79.70;;;;;;5032173;28;20042;-67
2022/02/27 09:11:52;;;;;;;7.55;2.47;;;5.10;79.00;;;;;;5031952;28;20025;-67
2022/02/27 09:14:17;;;;;;;7.05;2.95;;;5.20;79.80;;;;;;5032071;28;20042;-66
2022/02/27 09:16:43;;;;;;;10.23;2.92;;;5.30;79.80;;;;;;5047764;28;20017;-67
2022/02/27 09:19:08;;;;;;;6.53;2.45;;;5.30;77.60;;;;;;5031438;28;20029;-66
2022/02/27 09:21:34;;;;;;;7.57;2.33;;;5.40;78.60;;;;;;5030330;28;20045;-67
2022/02/27 09:23:59;;;;;;;9.40;3.03;;;5.40;78.80;;;;;;5029401;28;20083;-67
2022/02/27 09:26:25;;;;;;;8.82;2.70;;;5.50;77.10;;;;;;5031355;28;20379;-72
2022/02/27 09:28:51;;;;;;;8.85;3.40;;;5.50;76.60;;;;;;5012549;28;20029;-72
2022/02/27 09:31:17;;;;;;;8.98;3.22;;;5.50;79.00;;;;;;5031067;28;20083;-72
2022/02/27 09:33:42;;;;;;;9.68;3.80;;;5.60;77.70;;;;;;5032297;28;20477;-72
2022/02/27 09:36:10;;;;;;;8.00;3.45;;;5.70;77.30;;;;;;5047748;28;20028;-72
2022/02/27 09:38:37;;;;;;;9.13;3.75;;;5.70;77.30;;;;;;5035982;28;20121;-72
2022/02/27 09:41:03;;;;;;;7.03;2.90;;;5.70;76.90;;;;;;5036030;28;20032;-72
2022/02/27 09:43:29;;;;;;;11.50;3.90;;;5.80;77.70;;;;;;5027959;28;20037;-72
2022/02/27 09:45:55;;;;;;;9.55;3.72;;;5.90;76.90;;;;;;5033047;28;20485;-72
2022/02/27 09:48:21;;;;;;;7.93;3.30;;;5.90;76.60;;;;;;5032951;28;20059;-72
2022/02/27 09:50:51;;;;;;;8.32;3.40;;;6.00;77.20;;;;;;5028841;28;20022;-72
2022/02/27 09:53:17;;;;;;;10.80;3.85;;;6.10;77.80;;;;;;5030661;28;20052;-72
2022/02/27 09:55:43;;;;;;;8.45;3.95;;;6.20;77.50;;;;;;5031182;28;20072;-72
2022/02/27 09:58:09;;;;;;;11.23;3.63;;;6.30;75.90;;;;;;5045444;28;20446;-72
2022/02/27 10:00:34;;;;;;;7.13;3.53;;;6.40;75.90;;;;;;5035262;28;20022;-72
2022/02/27 10:03:12;;;;;;;10.85;3.55;;;6.40;75.30;;;;;;5030812;28;20096;-72
2022/02/27 10:05:39;;;;;;;12.55;3.83;;;6.60;73.70;;;;;;5031009;28;20014;-72
2022/02/27 10:08:07;;;;;;;8.55;3.30;;;6.60;73.90;;;;;;5030762;28;20438;-72
2022/02/27 10:10:33;;;;;;;8.02;3.40;;;6.70;73.80;;;;;;5034026;28;20017;-72
2022/02/27 10:12:59;;;;;;;8.00;3.67;;;6.80;74.10;;;;;;5046180;28;20493;-71
2022/02/27 10:15:25;;;;;;;8.80;4.13;;;7.10;73.60;;;;;;5032803;28;20025;-72
2022/02/27 10:17:51;;;;;;;8.00;3.67;;;7.20;73.10;;;;;;5031695;28;20048;-72
2022/02/27 10:20:20;;;;;;;10.63;3.80;;;7.30;71.70;;;;;;5032682;28;20029;-72
2022/02/27 10:22:54;;;;;;;7.72;3.60;;;7.40;71.70;;;;;;5030770;28;20021;-72
2022/02/27 10:25:29;;;;;;;8.07;3.38;;;7.60;71.10;;;;;;5036887;28;20026;-72
2022/02/27 10:28:03;;;;;;;6.00;2.60;;;7.90;71.40;;;;;;5032307;28;20489;-72
2022/02/27 10:30:32;;;;;;;11.45;3.80;;;8.20;71.30;;;;;;5036618;28;20029;-72
2022/02/27 10:33:06;;;;;;;8.55;3.58;;;8.50;69.00;;;;;;5030706;28;20031;-72
2022/02/27 10:35:52;;;;;;;7.50;2.78;;;8.80;68.80;;;;;;5038038;28;20144;-72
2022/02/27 10:38:51;;;;;;;5.47;3.13;;;10.10;72.10;;;;;;5032042;28;20129;-72
2022/02/27 10:41:21;;;;;;;6.57;2.42;;;13.00;61.70;;;;;;5031727;28;20028;-72
2022/02/27 10:43:48;;;;;;;7.03;2.95;;;16.20;55.40;;;;;;5032588;28;20025;-73
2022/02/27 10:46:15;;;;;;;6.82;3.38;;;18.50;49.00;;;;;;5032557;28;20014;-73
2022/02/27 10:48:41;;;;;;;7.88;3.22;;;19.80;42.20;;;;;;5044828;28;20029;-72
2022/02/27 10:51:11;;;;;;;6.90;3.20;;;20.50;42.20;;;;;;5034252;28;20464;-72
2022/02/27 10:53:40;;;;;;;7.07;2.95;;;21.70;39.10;;;;;;5034933;28;20379;-73
2022/02/27 10:56:07;;;;;;;6.25;2.30;;;22.30;37.70;;;;;;5036511;28;20063;-73
2022/02/27 10:58:40;;;;;;;7.63;3.28;;;22.10;37.00;;;;;;5038438;28;20049;-72
2022/02/27 11:01:25;;;;;;;5.47;2.95;;;21.70;36.50;;;;;;5034229;28;20029;-73
2022/02/27 11:03:53;;;;;;;5.28;2.25;;;21.20;37.60;;;;;;5048769;28;20049;-73
2022/02/27 11:06:20;;;;;;;4.82;2.67;;;22.40;38.70;;;;;;5035399;28;20021;-73
2022/02/27 11:08:46;;;;;;;5.57;2.53;;;23.30;35.30;;;;;;5049468;28;20025;-73
2022/02/27 11:11:13;;;;;;;4.28;2.33;;;23.10;33.50;;;;;;5048964;28;20524;-73
2022/02/27 11:13:39;;;;;;;5.07;2.65;;;22.60;34.20;;;;;;5042972;28;20132;-73
2022/02/27 11:16:07;;;;;;;8.10;2.95;;;22.00;34.20;;;;;;5036065;28;20548;-73
2022/02/27 11:18:32;;;;;;;8.15;2.70;;;21.10;35.30;;;;;;5038057;28;20017;-73
2022/02/27 11:20:58;;;;;;;5.95;2.60;;;20.60;35.20;;;;;;5036466;28;20017;-73
2022/02/27 11:23:24;;;;;;;5.60;2.67;;;21.10;35.10;;;;;;5042891;28;20485;-73
2022/02/27 11:25:51;;;;;;;4.80;2.40;;;21.40;33.70;;;;;;5035915;28;20021;-73
2022/02/27 11:28:20;;;;;;;5.10;2.35;;;21.20;34.00;;;;;;5043745;28;20112;-73
2022/02/27 11:30:50;;;;;;;6.67;2.03;;;20.30;35.40;;;;;;5032453;28;20017;-73
2022/02/27 11:33:22;;;;;;;4.25;2.13;;;20.50;34.60;;;;;;5035749;28;20030;-73
2022/02/27 11:35:58;;;;;;;4.47;1.63;;;20.00;35.20;;;;;;5033751;28;20056;-73
2022/02/27 11:38:30;;;;;;;6.10;2.05;;;20.00;35.90;;;;;;5036443;28;20037;-73
2022/02/27 11:41:09;;;;;;;4.35;2.20;;;20.70;35.90;;;;;;5036524;28;20025;-73
2022/02/27 11:43:53;;;;;;;5.00;2.00;;;21.50;33.60;;;;;;5034717;28;20029;-73
2022/02/27 11:46:42;;;;;;;5.78;2.30;;;21.60;34.00;;;;;;5039991;28;20260;-74
2022/02/27 11:49:08;;;;;;;6.15;1.90;;;20.60;33.30;;;;;;5027991;28;20036;-73
2022/02/27 11:51:37;;;;;;;4.88;2.30;;;19.50;34.80;;;;;;5044185;28;20022;-73
2022/02/27 11:54:08;;;;;;;4.30;1.80;;;19.20;36.00;;;;;;5040324;28;20033;-73
2022/02/27 11:56:36;;;;;;;6.00;2.00;;;19.00;36.10;;;;;;5034655;28;20025;-73
2022/02/27 11:59:02;;;;;;;4.55;1.92;;;19.80;35.50;;;;;;5047289;28;20022;-73
2022/02/27 12:01:37;;;;;;;8.48;2.20;;;19.50;35.10;;;;;;5032571;28;20040;-73
2022/02/27 12:04:21;;;;;;;4.30;1.92;;;18.80;34.70;;;;;;5032086;28;20113;-73
2022/02/27 12:07:06;;;;;;;4.70;2.00;;;17.90;36.50;;;;;;5031969;28;20078;-73
2022/02/27 12:09:52;;;;;;;5.03;1.52;;;17.20;37.30;;;;;;5033701;28;20116;-74
2022/02/27 12:12:40;;;;;;;4.07;1.52;;;17.50;37.80;;;;;;5030857;28;20508;-73
2022/02/27 12:15:33;;;;;;;3.75;1.73;;;17.50;37.90;;;;;;5051929;28;20241;-73
2022/02/27 12:18:19;;;;;;;4.18;2.03;;;17.30;38.70;;;;;;5040566;28;20057;-74
2022/02/27 12:20:53;;;;;;;4.72;1.90;;;17.30;38.20;;;;;;5020086;28;20059;-74
2022/02/27 12:23:28;;;;;;;4.30;2.17;;;17.10;37.40;;;;;;5044634;28;20017;-73
2022/02/27 12:25:55;;;;;;;4.82;2.20;;;17.00;38.70;;;;;;5045554;28;20021;-74
2022/02/27 12:28:52;;;;;;;4.13;1.75;;;17.30;37.80;;;;;;5037249;28;20026;-73
2022/02/27 12:31:19;;;;;;;5.20;1.75;;;17.90;36.90;;;;;;5044362;28;20029;-73
2022/02/27 12:33:45;;;;;;;4.68;2.13;;;17.60;38.50;;;;;;5035293;28;20045;-73
2022/02/27 12:36:11;;;;;;;3.85;1.50;;;18.20;37.30;;;;;;5033490;28;20021;-74
2022/02/27 12:38:37;;;;;;;3.70;1.50;;;18.10;37.40;;;;;;5050363;28;20052;-74
2022/02/27 12:41:03;;;;;;;4.13;2.13;;;18.20;38.20;;;;;;5030783;28;20072;-74
2022/02/27 12:43:29;;;;;;;4.72;1.95;;;19.20;37.30;;;;;;5042343;28;20047;-74
2022/02/27 12:45:55;;;;;;;3.65;2.05;;;19.20;35.70;;;;;;5038257;28;20108;-74
2022/02/27 12:48:24;;;;;;;5.97;2.28;;;18.80;36.70;;;;;;5038962;28;20059;-74
2022/02/27 12:50:53;;;;;;;7.10;3.00;;;18.00;36.30;;;;;;5035602;28;20013;-74
2022/02/27 12:53:19;;;;;;;5.35;2.08;;;17.40;37.80;;;;;;5040826;28;20017;-74